Aviation Digital Data Service (ADDS)

Output produced by METARs form (1824 UTC 16 October 2021)
found at http://www.aviationweather.gov/metar/data/
 
METAR text: RJFG 160900Z 28007KT 8000 FEW015 SCT080 BKN100 24/22 Q1013
Conditions at: RJFG (TANEGASHIMA AIRP, JP) observed 0900 UTC 16 October 2021
Temperature: 24.0°C (75°F)
Dewpoint: 22.0°C (72°F) [RH = 89%]
Pressure (altimeter): 29.91 inches Hg (1013.0 mb)
Winds: from the W (280 degrees) at 8 MPH (7 knots; 3.6 m/s)
Visibility: 5 miles ( 8 km)
Ceiling: 10000 feet AGL
Clouds: few clouds at 1500 feet AGL
scattered clouds at 8000 feet AGL
broken clouds at 10000 feet AGL
Weather: no significant weather observed at this time

METAR text: RJFG 160800Z 28007KT 8000 FEW015 SCT050 25/21 Q1013
Conditions at: RJFG (TANEGASHIMA AIRP, JP) observed 0800 UTC 16 October 2021
Temperature: 25.0°C (77°F)
Dewpoint: 21.0°C (70°F) [RH = 79%]
Pressure (altimeter): 29.91 inches Hg (1013.0 mb)
Winds: from the W (280 degrees) at 8 MPH (7 knots; 3.6 m/s)
Visibility: 5 miles ( 8 km)
Ceiling: at least 12,000 feet AGL
Clouds: few clouds at 1500 feet AGL
scattered clouds at 5000 feet AGL
Weather: no significant weather observed at this time

METAR text: RJFG 160700Z 26006KT 220V290 9999 FEW015 SCT100 26/21 Q1013
Conditions at: RJFG (TANEGASHIMA AIRP, JP) observed 0700 UTC 16 October 2021
Temperature: 26.0°C (79°F)
Dewpoint: 21.0°C (70°F) [RH = 74%]
Pressure (altimeter): 29.91 inches Hg (1013.0 mb)
Winds: from the W (260 degrees) at 7 MPH (6 knots; 3.1 m/s)
Visibility: 6 or more miles (10+ km)
Ceiling: at least 12,000 feet AGL
Clouds: few clouds at 1500 feet AGL
scattered clouds at 10000 feet AGL
Weather: no significant weather observed at this time

METAR text: RJFG 160600Z 26008KT 230V300 9999 FEW015 SCT020 BKN100 26/23 Q1013
Conditions at: RJFG (TANEGASHIMA AIRP, JP) observed 0600 UTC 16 October 2021
Temperature: 26.0°C (79°F)
Dewpoint: 23.0°C (73°F) [RH = 84%]
Pressure (altimeter): 29.91 inches Hg (1013.0 mb)
Winds: from the W (260 degrees) at 9 MPH (8 knots; 4.1 m/s)
Visibility: 6 or more miles (10+ km)
Ceiling: 10000 feet AGL
Clouds: few clouds at 1500 feet AGL
scattered clouds at 2000 feet AGL
broken clouds at 10000 feet AGL
Weather: no significant weather observed at this time

METAR text: RJFG 160500Z 26007KT 210V300 9999 FEW015 SCT020 27/22 Q1013
Conditions at: RJFG (TANEGASHIMA AIRP, JP) observed 0500 UTC 16 October 2021
Temperature: 27.0°C (81°F)
Dewpoint: 22.0°C (72°F) [RH = 74%]
Pressure (altimeter): 29.91 inches Hg (1013.0 mb)
Winds: from the W (260 degrees) at 8 MPH (7 knots; 3.6 m/s)
Visibility: 6 or more miles (10+ km)
Ceiling: at least 12,000 feet AGL
Clouds: few clouds at 1500 feet AGL
scattered clouds at 2000 feet AGL
Weather: no significant weather observed at this time

METAR text: RJFG 160400Z 24005KT 200V280 9999 FEW015 SCT020 26/22 Q1013
Conditions at: RJFG (TANEGASHIMA AIRP, JP) observed 0400 UTC 16 October 2021
Temperature: 26.0°C (79°F)
Dewpoint: 22.0°C (72°F) [RH = 79%]
Pressure (altimeter): 29.91 inches Hg (1013.0 mb)
Winds: from the WSW (240 degrees) at 6 MPH (5 knots; 2.6 m/s)
Visibility: 6 or more miles (10+ km)
Ceiling: at least 12,000 feet AGL
Clouds: few clouds at 1500 feet AGL
scattered clouds at 2000 feet AGL
Weather: no significant weather observed at this time

METAR text: RJFG 160300Z 19006KT 150V260 9999 FEW015 SCT025 26/23 Q1014
Conditions at: RJFG (TANEGASHIMA AIRP, JP) observed 0300 UTC 16 October 2021
Temperature: 26.0°C (79°F)
Dewpoint: 23.0°C (73°F) [RH = 84%]
Pressure (altimeter): 29.94 inches Hg (1014.0 mb)
Winds: from the S (190 degrees) at 7 MPH (6 knots; 3.1 m/s)
Visibility: 6 or more miles (10+ km)
Ceiling: at least 12,000 feet AGL
Clouds: few clouds at 1500 feet AGL
scattered clouds at 2500 feet AGL
Weather: no significant weather observed at this time

METAR text: RJFG 160200Z 18005KT 110V230 9999 FEW020 28/22 Q1015
Conditions at: RJFG (TANEGASHIMA AIRP, JP) observed 0200 UTC 16 October 2021
Temperature: 28.0°C (82°F)
Dewpoint: 22.0°C (72°F) [RH = 70%]
Pressure (altimeter): 29.97 inches Hg (1015.0 mb)
Winds: from the S (180 degrees) at 6 MPH (5 knots; 2.6 m/s)
Visibility: 6 or more miles (10+ km)
Ceiling: at least 12,000 feet AGL
Clouds: few clouds at 2000 feet AGL
Weather: no significant weather observed at this time

METAR text: RJFG 160100Z 14004KT 050V200 9999 FEW015 SCT020 27/22 Q1015
Conditions at: RJFG (TANEGASHIMA AIRP, JP) observed 0100 UTC 16 October 2021
Temperature: 27.0°C (81°F)
Dewpoint: 22.0°C (72°F) [RH = 74%]
Pressure (altimeter): 29.97 inches Hg (1015.0 mb)
Winds: from the SE (140 degrees) at 5 MPH (4 knots; 2.1 m/s)
Visibility: 6 or more miles (10+ km)
Ceiling: at least 12,000 feet AGL
Clouds: few clouds at 1500 feet AGL
scattered clouds at 2000 feet AGL
Weather: no significant weather observed at this time

METAR text: RJFG 160000Z VRB01KT 9999 FEW010 25/21 Q1016
Conditions at: RJFG (TANEGASHIMA AIRP, JP) observed 0000 UTC 16 October 2021
Temperature: 25.0°C (77°F)
Dewpoint: 21.0°C (70°F) [RH = 79%]
Pressure (altimeter): 30.00 inches Hg (1016.0 mb)
Winds: variable direction winds at 1 MPH (1 knots; 0.5 m/s)
Visibility: 6 or more miles (10+ km)
Ceiling: at least 12,000 feet AGL
Clouds: few clouds at 1000 feet AGL
Weather: no significant weather observed at this time

METAR text: RJFG 152330Z VRB02KT 9999 FEW010 24/22 Q1015
Conditions at: RJFG (TANEGASHIMA AIRP, JP) observed 2330 UTC 15 October 2021
Temperature: 24.0°C (75°F)
Dewpoint: 22.0°C (72°F) [RH = 89%]
Pressure (altimeter): 29.97 inches Hg (1015.0 mb)
Winds: variable direction winds at 2 MPH (2 knots; 1.0 m/s)
Visibility: 6 or more miles (10+ km)
Ceiling: at least 12,000 feet AGL
Clouds: few clouds at 1000 feet AGL
Weather: no significant weather observed at this time

METAR text: RJFG 152310Z 04003KT 360V130 9999 FEW015 24/22 Q1015 RMK 1CU015 A2999
Conditions at: RJFG (TANEGASHIMA AIRP, JP) observed 2310 UTC 15 October 2021
Temperature: 24.0°C (75°F)
Dewpoint: 22.0°C (72°F) [RH = 89%]
Pressure (altimeter): 29.97 inches Hg (1015.0 mb)
Winds: from the NE (40 degrees) at 3 MPH (3 knots; 1.5 m/s)
Visibility: 6 or more miles (10+ km)
Ceiling: at least 12,000 feet AGL
Clouds: few clouds at 1500 feet AGL
Weather: no significant weather observed at this time

METAR text: RJFG 150900Z 07003KT 040V110 9999 FEW015 23/21 Q1014
Conditions at: RJFG (TANEGASHIMA AIRP, JP) observed 0900 UTC 15 October 2021
Temperature: 23.0°C (73°F)
Dewpoint: 21.0°C (70°F) [RH = 89%]
Pressure (altimeter): 29.94 inches Hg (1014.0 mb)
Winds: from the ENE (70 degrees) at 3 MPH (3 knots; 1.5 m/s)
Visibility: 6 or more miles (10+ km)
Ceiling: at least 12,000 feet AGL
Clouds: few clouds at 1500 feet AGL
Weather: no significant weather observed at this time

METAR text: RJFG 150800Z 07003KT 010V110 9999 FEW010 24/21 Q1014
Conditions at: RJFG (TANEGASHIMA AIRP, JP) observed 0800 UTC 15 October 2021
Temperature: 24.0°C (75°F)
Dewpoint: 21.0°C (70°F) [RH = 83%]
Pressure (altimeter): 29.94 inches Hg (1014.0 mb)
Winds: from the ENE (70 degrees) at 3 MPH (3 knots; 1.5 m/s)
Visibility: 6 or more miles (10+ km)
Ceiling: at least 12,000 feet AGL
Clouds: few clouds at 1000 feet AGL
Weather: no significant weather observed at this time

METAR text: RJFG 150700Z 07006KT 010V120 9999 FEW010 SCT015 25/22 Q1014
Conditions at: RJFG (TANEGASHIMA AIRP, JP) observed 0700 UTC 15 October 2021
Temperature: 25.0°C (77°F)
Dewpoint: 22.0°C (72°F) [RH = 83%]
Pressure (altimeter): 29.94 inches Hg (1014.0 mb)
Winds: from the ENE (70 degrees) at 7 MPH (6 knots; 3.1 m/s)
Visibility: 6 or more miles (10+ km)
Ceiling: at least 12,000 feet AGL
Clouds: few clouds at 1000 feet AGL
scattered clouds at 1500 feet AGL
Weather: no significant weather observed at this time